sensor_id;sensor_type;location;lat;lon;timestamp;P1;durP1;ratioP1;P2;durP2;ratioP2
45764;SDS011;31474;45.332;10.230;2022-11-12T00:00:35;27.20;;;19.17;;
45764;SDS011;31474;45.332;10.230;2022-11-12T00:03:01;24.02;;;18.38;;
45764;SDS011;31474;45.332;10.230;2022-11-12T00:05:27;23.98;;;17.30;;
45764;SDS011;31474;45.332;10.230;2022-11-12T00:07:53;21.55;;;18.10;;
45764;SDS011;31474;45.332;10.230;2022-11-12T00:10:19;22.67;;;18.17;;
45764;SDS011;31474;45.332;10.230;2022-11-12T00:12:45;22.20;;;17.55;;
45764;SDS011;31474;45.332;10.230;2022-11-12T00:15:11;22.98;;;17.45;;
45764;SDS011;31474;45.332;10.230;2022-11-12T00:17:37;21.25;;;17.48;;
45764;SDS011;31474;45.332;10.230;2022-11-12T00:20:03;24.27;;;17.63;;
45764;SDS011;31474;45.332;10.230;2022-11-12T00:22:29;22.65;;;17.13;;
45764;SDS011;31474;45.332;10.230;2022-11-12T00:24:55;21.73;;;16.98;;
45764;SDS011;31474;45.332;10.230;2022-11-12T00:27:21;23.02;;;16.58;;
45764;SDS011;31474;45.332;10.230;2022-11-12T00:29:46;23.85;;;16.52;;
45764;SDS011;31474;45.332;10.230;2022-11-12T00:32:12;26.55;;;18.05;;
45764;SDS011;31474;45.332;10.230;2022-11-12T00:34:38;24.27;;;16.92;;
45764;SDS011;31474;45.332;10.230;2022-11-12T00:37:03;21.08;;;15.88;;
45764;SDS011;31474;45.332;10.230;2022-11-12T00:39:29;25.77;;;18.27;;
45764;SDS011;31474;45.332;10.230;2022-11-12T00:41:55;31.58;;;18.90;;
45764;SDS011;31474;45.332;10.230;2022-11-12T00:44:21;28.52;;;19.85;;
45764;SDS011;31474;45.332;10.230;2022-11-12T00:46:47;27.58;;;18.73;;
45764;SDS011;31474;45.332;10.230;2022-11-12T00:49:12;22.50;;;17.42;;
45764;SDS011;31474;45.332;10.230;2022-11-12T00:51:39;27.35;;;18.27;;
45764;SDS011;31474;45.332;10.230;2022-11-12T00:54:05;26.63;;;18.75;;
45764;SDS011;31474;45.332;10.230;2022-11-12T00:56:31;24.77;;;18.45;;
45764;SDS011;31474;45.332;10.230;2022-11-12T00:58:58;24.75;;;17.52;;
45764;SDS011;31474;45.332;10.230;2022-11-12T01:01:24;25.08;;;18.30;;
45764;SDS011;31474;45.332;10.230;2022-11-12T01:03:50;23.10;;;18.05;;
45764;SDS011;31474;45.332;10.230;2022-11-12T01:06:17;26.98;;;18.73;;
45764;SDS011;31474;45.332;10.230;2022-11-12T01:08:45;26.17;;;19.13;;
45764;SDS011;31474;45.332;10.230;2022-11-12T01:11:13;25.17;;;18.25;;
45764;SDS011;31474;45.332;10.230;2022-11-12T01:16:36;28.20;;;19.25;;
45764;SDS011;31474;45.332;10.230;2022-11-12T01:19:04;28.92;;;19.17;;
45764;SDS011;31474;45.332;10.230;2022-11-12T01:21:31;27.67;;;18.33;;
45764;SDS011;31474;45.332;10.230;2022-11-12T01:23:59;26.83;;;19.08;;
45764;SDS011;31474;45.332;10.230;2022-11-12T01:26:25;26.10;;;17.92;;
45764;SDS011;31474;45.332;10.230;2022-11-12T01:28:52;26.65;;;18.83;;
45764;SDS011;31474;45.332;10.230;2022-11-12T01:31:29;25.02;;;18.17;;
45764;SDS011;31474;45.332;10.230;2022-11-12T01:34:01;22.42;;;16.80;;
45764;SDS011;31474;45.332;10.230;2022-11-12T01:36:33;24.70;;;18.23;;
45764;SDS011;31474;45.332;10.230;2022-11-12T01:39:00;25.42;;;17.13;;
45764;SDS011;31474;45.332;10.230;2022-11-12T01:41:28;23.75;;;17.38;;
45764;SDS011;31474;45.332;10.230;2022-11-12T01:44:08;24.98;;;17.30;;
45764;SDS011;31474;45.332;10.230;2022-11-12T01:46:35;25.30;;;18.20;;
45764;SDS011;31474;45.332;10.230;2022-11-12T01:49:07;24.05;;;17.60;;
45764;SDS011;31474;45.332;10.230;2022-11-12T01:51:40;24.92;;;16.00;;
45764;SDS011;31474;45.332;10.230;2022-11-12T01:54:09;22.70;;;17.20;;
45764;SDS011;31474;45.332;10.230;2022-11-12T01:56:39;22.52;;;15.85;;
45764;SDS011;31474;45.332;10.230;2022-11-12T01:59:14;22.52;;;17.42;;
45764;SDS011;31474;45.332;10.230;2022-11-12T02:01:44;21.38;;;15.80;;
45764;SDS011;31474;45.332;10.230;2022-11-12T02:04:09;21.02;;;16.88;;
45764;SDS011;31474;45.332;10.230;2022-11-12T02:06:35;22.27;;;16.38;;
45764;SDS011;31474;45.332;10.230;2022-11-12T02:09:03;20.73;;;16.98;;
45764;SDS011;31474;45.332;10.230;2022-11-12T02:11:29;22.08;;;14.93;;
45764;SDS011;31474;45.332;10.230;2022-11-12T02:13:55;23.25;;;16.00;;
45764;SDS011;31474;45.332;10.230;2022-11-12T02:16:21;23.85;;;16.30;;
45764;SDS011;31474;45.332;10.230;2022-11-12T02:19:09;22.77;;;16.30;;
45764;SDS011;31474;45.332;10.230;2022-11-12T02:21:36;20.88;;;15.95;;
45764;SDS011;31474;45.332;10.230;2022-11-12T02:24:03;22.30;;;16.65;;
45764;SDS011;31474;45.332;10.230;2022-11-12T02:26:34;24.35;;;18.30;;
45764;SDS011;31474;45.332;10.230;2022-11-12T02:29:02;20.15;;;15.52;;
45764;SDS011;31474;45.332;10.230;2022-11-12T02:31:28;21.83;;;16.35;;
45764;SDS011;31474;45.332;10.230;2022-11-12T02:33:55;21.33;;;15.90;;
45764;SDS011;31474;45.332;10.230;2022-11-12T02:36:21;21.60;;;15.30;;
45764;SDS011;31474;45.332;10.230;2022-11-12T02:38:47;21.17;;;16.38;;
45764;SDS011;31474;45.332;10.230;2022-11-12T02:41:13;21.35;;;16.02;;
45764;SDS011;31474;45.332;10.230;2022-11-12T02:43:39;20.42;;;16.60;;
45764;SDS011;31474;45.332;10.230;2022-11-12T02:46:05;21.17;;;16.50;;
45764;SDS011;31474;45.332;10.230;2022-11-12T02:48:31;22.40;;;16.48;;
45764;SDS011;31474;45.332;10.230;2022-11-12T02:50:57;19.17;;;15.57;;
45764;SDS011;31474;45.332;10.230;2022-11-12T02:53:22;23.48;;;16.98;;
45764;SDS011;31474;45.332;10.230;2022-11-12T02:55:48;20.50;;;15.65;;
45764;SDS011;31474;45.332;10.230;2022-11-12T02:58:14;19.05;;;14.98;;
45764;SDS011;31474;45.332;10.230;2022-11-12T03:00:40;19.60;;;16.13;;
45764;SDS011;31474;45.332;10.230;2022-11-12T03:03:06;21.05;;;15.80;;
45764;SDS011;31474;45.332;10.230;2022-11-12T03:05:32;21.73;;;15.60;;
45764;SDS011;31474;45.332;10.230;2022-11-12T03:07:59;21.35;;;16.55;;
45764;SDS011;31474;45.332;10.230;2022-11-12T03:10:27;21.92;;;15.75;;
45764;SDS011;31474;45.332;10.230;2022-11-12T03:12:57;20.17;;;15.30;;
45764;SDS011;31474;45.332;10.230;2022-11-12T03:15:25;19.70;;;15.45;;
45764;SDS011;31474;45.332;10.230;2022-11-12T03:17:51;20.15;;;15.45;;
45764;SDS011;31474;45.332;10.230;2022-11-12T03:20:17;17.27;;;14.25;;
45764;SDS011;31474;45.332;10.230;2022-11-12T03:22:53;22.60;;;15.85;;
45764;SDS011;31474;45.332;10.230;2022-11-12T03:25:22;19.05;;;14.25;;
45764;SDS011;31474;45.332;10.230;2022-11-12T03:27:55;18.52;;;15.25;;
45764;SDS011;31474;45.332;10.230;2022-11-12T03:30:21;20.85;;;14.55;;
45764;SDS011;31474;45.332;10.230;2022-11-12T03:32:47;20.75;;;15.23;;
45764;SDS011;31474;45.332;10.230;2022-11-12T03:35:12;23.30;;;16.25;;
45764;SDS011;31474;45.332;10.230;2022-11-12T03:37:38;21.05;;;15.95;;
45764;SDS011;31474;45.332;10.230;2022-11-12T03:40:04;19.92;;;14.45;;
45764;SDS011;31474;45.332;10.230;2022-11-12T03:42:30;23.38;;;16.25;;
45764;SDS011;31474;45.332;10.230;2022-11-12T03:44:55;20.42;;;14.80;;
45764;SDS011;31474;45.332;10.230;2022-11-12T03:47:21;17.98;;;15.02;;
45764;SDS011;31474;45.332;10.230;2022-11-12T03:49:46;18.70;;;14.65;;
45764;SDS011;31474;45.332;10.230;2022-11-12T03:52:12;20.83;;;15.45;;
45764;SDS011;31474;45.332;10.230;2022-11-12T03:54:38;21.30;;;15.10;;
45764;SDS011;31474;45.332;10.230;2022-11-12T03:57:03;18.75;;;14.73;;
45764;SDS011;31474;45.332;10.230;2022-11-12T03:59:29;17.33;;;13.90;;
45764;SDS011;31474;45.332;10.230;2022-11-12T04:01:54;17.02;;;13.43;;
45764;SDS011;31474;45.332;10.230;2022-11-12T04:04:20;16.83;;;13.95;;
45764;SDS011;31474;45.332;10.230;2022-11-12T04:06:46;19.75;;;14.02;;
45764;SDS011;31474;45.332;10.230;2022-11-12T04:09:30;16.30;;;13.07;;
45764;SDS011;31474;45.332;10.230;2022-11-12T04:11:55;19.00;;;14.43;;
45764;SDS011;31474;45.332;10.230;2022-11-12T04:14:41;14.63;;;11.73;;
45764;SDS011;31474;45.332;10.230;2022-11-12T04:17:06;17.65;;;13.63;;
45764;SDS011;31474;45.332;10.230;2022-11-12T04:19:50;17.33;;;15.02;;
45764;SDS011;31474;45.332;10.230;2022-11-12T04:22:34;15.85;;;13.98;;
45764;SDS011;31474;45.332;10.230;2022-11-12T04:25:00;17.40;;;13.55;;
45764;SDS011;31474;45.332;10.230;2022-11-12T04:27:44;16.92;;;14.65;;
45764;SDS011;31474;45.332;10.230;2022-11-12T04:30:10;21.33;;;14.82;;
45764;SDS011;31474;45.332;10.230;2022-11-12T04:32:52;18.30;;;14.30;;
45764;SDS011;31474;45.332;10.230;2022-11-12T04:35:19;18.85;;;13.57;;
45764;SDS011;31474;45.332;10.230;2022-11-12T04:37:47;19.73;;;13.98;;
45764;SDS011;31474;45.332;10.230;2022-11-12T04:40:14;21.33;;;14.95;;
45764;SDS011;31474;45.332;10.230;2022-11-12T04:43:00;21.02;;;15.98;;
45764;SDS011;31474;45.332;10.230;2022-11-12T04:45:45;22.23;;;15.27;;
45764;SDS011;31474;45.332;10.230;2022-11-12T04:48:14;21.23;;;15.63;;
45764;SDS011;31474;45.332;10.230;2022-11-12T04:50:40;23.02;;;14.57;;
45764;SDS011;31474;45.332;10.230;2022-11-12T04:53:08;20.30;;;13.57;;
45764;SDS011;31474;45.332;10.230;2022-11-12T04:55:34;22.92;;;14.75;;
45764;SDS011;31474;45.332;10.230;2022-11-12T04:57:59;16.30;;;13.50;;
45764;SDS011;31474;45.332;10.230;2022-11-12T05:00:25;20.75;;;15.15;;
45764;SDS011;31474;45.332;10.230;2022-11-12T05:02:51;18.85;;;15.15;;
45764;SDS011;31474;45.332;10.230;2022-11-12T05:05:17;17.08;;;14.32;;
45764;SDS011;31474;45.332;10.230;2022-11-12T05:07:42;20.55;;;14.63;;
45764;SDS011;31474;45.332;10.230;2022-11-12T05:10:08;20.65;;;14.50;;
45764;SDS011;31474;45.332;10.230;2022-11-12T05:12:34;19.83;;;15.55;;
45764;SDS011;31474;45.332;10.230;2022-11-12T05:15:00;19.40;;;13.43;;
45764;SDS011;31474;45.332;10.230;2022-11-12T05:17:26;16.58;;;13.98;;
45764;SDS011;31474;45.332;10.230;2022-11-12T05:19:52;20.13;;;15.23;;
45764;SDS011;31474;45.332;10.230;2022-11-12T05:22:18;20.70;;;14.48;;
45764;SDS011;31474;45.332;10.230;2022-11-12T05:24:43;18.77;;;15.05;;
45764;SDS011;31474;45.332;10.230;2022-11-12T05:27:10;18.88;;;15.13;;
45764;SDS011;31474;45.332;10.230;2022-11-12T05:29:38;18.92;;;15.20;;
45764;SDS011;31474;45.332;10.230;2022-11-12T05:32:04;18.60;;;13.73;;
45764;SDS011;31474;45.332;10.230;2022-11-12T05:34:31;21.23;;;14.57;;
45764;SDS011;31474;45.332;10.230;2022-11-12T05:36:57;18.77;;;14.75;;
45764;SDS011;31474;45.332;10.230;2022-11-12T05:39:23;18.65;;;13.45;;
45764;SDS011;31474;45.332;10.230;2022-11-12T05:41:49;19.02;;;14.48;;
45764;SDS011;31474;45.332;10.230;2022-11-12T05:44:15;17.88;;;13.70;;
45764;SDS011;31474;45.332;10.230;2022-11-12T05:46:41;19.70;;;15.02;;
45764;SDS011;31474;45.332;10.230;2022-11-12T05:49:07;18.70;;;14.57;;
45764;SDS011;31474;45.332;10.230;2022-11-12T05:51:32;20.88;;;15.65;;
45764;SDS011;31474;45.332;10.230;2022-11-12T05:53:58;22.23;;;16.08;;
45764;SDS011;31474;45.332;10.230;2022-11-12T05:56:24;74.60;;;43.15;;
45764;SDS011;31474;45.332;10.230;2022-11-12T05:58:50;42.90;;;29.17;;
45764;SDS011;31474;45.332;10.230;2022-11-12T06:01:16;27.13;;;22.35;;
45764;SDS011;31474;45.332;10.230;2022-11-12T06:03:41;21.33;;;18.02;;
45764;SDS011;31474;45.332;10.230;2022-11-12T06:06:07;29.73;;;23.52;;
45764;SDS011;31474;45.332;10.230;2022-11-12T06:08:33;23.55;;;18.98;;
45764;SDS011;31474;45.332;10.230;2022-11-12T06:10:58;19.67;;;16.95;;
45764;SDS011;31474;45.332;10.230;2022-11-12T06:13:24;24.25;;;17.67;;
45764;SDS011;31474;45.332;10.230;2022-11-12T06:15:51;19.75;;;16.90;;
45764;SDS011;31474;45.332;10.230;2022-11-12T06:18:17;18.98;;;16.65;;
45764;SDS011;31474;45.332;10.230;2022-11-12T06:20:43;20.23;;;16.50;;
45764;SDS011;31474;45.332;10.230;2022-11-12T06:23:09;19.83;;;15.70;;
45764;SDS011;31474;45.332;10.230;2022-11-12T06:25:34;13.80;;;12.40;;
45764;SDS011;31474;45.332;10.230;2022-11-12T06:28:00;16.02;;;12.75;;
45764;SDS011;31474;45.332;10.230;2022-11-12T06:30:26;16.35;;;13.55;;
45764;SDS011;31474;45.332;10.230;2022-11-12T06:32:52;17.35;;;13.43;;
45764;SDS011;31474;45.332;10.230;2022-11-12T06:35:17;19.85;;;16.15;;
45764;SDS011;31474;45.332;10.230;2022-11-12T06:37:47;20.15;;;14.40;;
45764;SDS011;31474;45.332;10.230;2022-11-12T06:40:13;19.48;;;14.80;;
45764;SDS011;31474;45.332;10.230;2022-11-12T06:42:39;19.80;;;14.10;;
45764;SDS011;31474;45.332;10.230;2022-11-12T06:45:05;21.70;;;17.63;;
45764;SDS011;31474;45.332;10.230;2022-11-12T06:47:31;19.35;;;15.50;;
45764;SDS011;31474;45.332;10.230;2022-11-12T06:49:57;17.55;;;14.48;;
45764;SDS011;31474;45.332;10.230;2022-11-12T06:52:22;17.38;;;13.55;;
45764;SDS011;31474;45.332;10.230;2022-11-12T06:54:48;31.45;;;21.33;;
45764;SDS011;31474;45.332;10.230;2022-11-12T06:57:14;26.35;;;20.02;;
45764;SDS011;31474;45.332;10.230;2022-11-12T06:59:39;19.13;;;15.38;;
45764;SDS011;31474;45.332;10.230;2022-11-12T07:02:05;17.50;;;15.05;;
45764;SDS011;31474;45.332;10.230;2022-11-12T07:04:31;18.00;;;14.63;;
45764;SDS011;31474;45.332;10.230;2022-11-12T07:06:56;19.60;;;14.60;;
45764;SDS011;31474;45.332;10.230;2022-11-12T07:09:22;15.77;;;13.98;;
45764;SDS011;31474;45.332;10.230;2022-11-12T07:11:47;17.45;;;13.85;;
45764;SDS011;31474;45.332;10.230;2022-11-12T07:14:13;17.23;;;13.63;;
45764;SDS011;31474;45.332;10.230;2022-11-12T07:16:39;18.10;;;14.40;;
45764;SDS011;31474;45.332;10.230;2022-11-12T07:19:04;16.73;;;14.18;;
45764;SDS011;31474;45.332;10.230;2022-11-12T07:21:30;17.17;;;13.38;;
45764;SDS011;31474;45.332;10.230;2022-11-12T07:23:56;16.58;;;14.07;;
45764;SDS011;31474;45.332;10.230;2022-11-12T07:26:22;15.20;;;13.18;;
45764;SDS011;31474;45.332;10.230;2022-11-12T07:28:50;17.42;;;13.10;;
45764;SDS011;31474;45.332;10.230;2022-11-12T07:31:17;15.95;;;13.15;;
45764;SDS011;31474;45.332;10.230;2022-11-12T07:33:44;16.65;;;13.80;;
45764;SDS011;31474;45.332;10.230;2022-11-12T07:36:13;16.52;;;13.68;;
45764;SDS011;31474;45.332;10.230;2022-11-12T07:38:40;17.77;;;14.50;;
45764;SDS011;31474;45.332;10.230;2022-11-12T07:41:11;18.25;;;14.40;;
45764;SDS011;31474;45.332;10.230;2022-11-12T07:43:39;20.88;;;14.75;;
45764;SDS011;31474;45.332;10.230;2022-11-12T07:46:15;19.40;;;15.07;;
45764;SDS011;31474;45.332;10.230;2022-11-12T07:48:43;20.17;;;15.88;;
45764;SDS011;31474;45.332;10.230;2022-11-12T07:51:14;19.15;;;14.25;;
45764;SDS011;31474;45.332;10.230;2022-11-12T07:53:44;22.45;;;16.70;;
45764;SDS011;31474;45.332;10.230;2022-11-12T07:56:14;22.58;;;16.48;;
45764;SDS011;31474;45.332;10.230;2022-11-12T07:58:41;22.02;;;16.15;;
45764;SDS011;31474;45.332;10.230;2022-11-12T08:03:36;21.95;;;16.83;;
45764;SDS011;31474;45.332;10.230;2022-11-12T08:06:02;21.67;;;16.02;;
45764;SDS011;31474;45.332;10.230;2022-11-12T08:08:28;20.90;;;16.30;;
45764;SDS011;31474;45.332;10.230;2022-11-12T08:10:56;22.13;;;16.15;;
45764;SDS011;31474;45.332;10.230;2022-11-12T08:13:23;20.73;;;15.63;;
45764;SDS011;31474;45.332;10.230;2022-11-12T08:15:49;30.02;;;19.88;;
45764;SDS011;31474;45.332;10.230;2022-11-12T08:18:15;26.40;;;18.75;;
45764;SDS011;31474;45.332;10.230;2022-11-12T08:20:41;26.48;;;17.02;;
45764;SDS011;31474;45.332;10.230;2022-11-12T08:23:06;24.85;;;17.98;;
45764;SDS011;31474;45.332;10.230;2022-11-12T08:25:32;21.85;;;16.52;;
45764;SDS011;31474;45.332;10.230;2022-11-12T08:27:58;23.20;;;17.27;;
45764;SDS011;31474;45.332;10.230;2022-11-12T08:30:25;23.85;;;16.88;;
45764;SDS011;31474;45.332;10.230;2022-11-12T08:32:58;24.40;;;17.67;;
45764;SDS011;31474;45.332;10.230;2022-11-12T08:35:25;24.55;;;16.20;;
45764;SDS011;31474;45.332;10.230;2022-11-12T08:37:58;47.20;;;25.60;;
45764;SDS011;31474;45.332;10.230;2022-11-12T08:40:25;28.67;;;19.27;;
45764;SDS011;31474;45.332;10.230;2022-11-12T08:43:10;22.42;;;15.57;;
45764;SDS011;31474;45.332;10.230;2022-11-12T08:45:37;24.52;;;17.45;;
45764;SDS011;31474;45.332;10.230;2022-11-12T08:48:05;24.75;;;17.35;;
45764;SDS011;31474;45.332;10.230;2022-11-12T08:50:40;20.45;;;16.35;;
45764;SDS011;31474;45.332;10.230;2022-11-12T08:53:07;20.98;;;16.40;;
45764;SDS011;31474;45.332;10.230;2022-11-12T08:55:37;23.38;;;16.23;;
45764;SDS011;31474;45.332;10.230;2022-11-12T08:58:04;24.00;;;17.35;;
45764;SDS011;31474;45.332;10.230;2022-11-12T09:00:31;22.48;;;15.15;;
45764;SDS011;31474;45.332;10.230;2022-11-12T09:03:00;24.10;;;16.08;;
45764;SDS011;31474;45.332;10.230;2022-11-12T09:05:27;19.73;;;15.20;;
45764;SDS011;31474;45.332;10.230;2022-11-12T09:07:56;36.78;;;22.17;;
45764;SDS011;31474;45.332;10.230;2022-11-12T09:10:26;35.50;;;23.23;;
45764;SDS011;31474;45.332;10.230;2022-11-12T09:12:52;24.90;;;17.90;;
45764;SDS011;31474;45.332;10.230;2022-11-12T09:15:19;21.20;;;16.38;;
45764;SDS011;31474;45.332;10.230;2022-11-12T09:17:46;20.13;;;15.40;;
45764;SDS011;31474;45.332;10.230;2022-11-12T09:20:11;25.50;;;18.23;;
45764;SDS011;31474;45.332;10.230;2022-11-12T09:22:37;24.73;;;17.00;;
45764;SDS011;31474;45.332;10.230;2022-11-12T09:25:03;23.50;;;17.20;;
45764;SDS011;31474;45.332;10.230;2022-11-12T09:27:29;18.50;;;15.27;;
45764;SDS011;31474;45.332;10.230;2022-11-12T09:29:54;22.90;;;14.35;;
45764;SDS011;31474;45.332;10.230;2022-11-12T09:32:20;22.13;;;15.52;;
45764;SDS011;31474;45.332;10.230;2022-11-12T09:34:46;22.77;;;15.88;;
45764;SDS011;31474;45.332;10.230;2022-11-12T09:37:11;22.65;;;14.85;;
45764;SDS011;31474;45.332;10.230;2022-11-12T09:39:37;20.05;;;14.43;;
45764;SDS011;31474;45.332;10.230;2022-11-12T09:42:07;22.80;;;15.98;;
45764;SDS011;31474;45.332;10.230;2022-11-12T09:44:37;21.40;;;15.70;;
45764;SDS011;31474;45.332;10.230;2022-11-12T09:47:11;20.17;;;16.23;;
45764;SDS011;31474;45.332;10.230;2022-11-12T09:52:42;19.60;;;15.90;;
45764;SDS011;31474;45.332;10.230;2022-11-12T09:55:21;19.13;;;14.48;;
45764;SDS011;31474;45.332;10.230;2022-11-12T09:57:55;20.92;;;16.05;;
45764;SDS011;31474;45.332;10.230;2022-11-12T10:00:21;21.83;;;15.18;;
45764;SDS011;31474;45.332;10.230;2022-11-12T10:03:00;19.77;;;15.15;;
45764;SDS011;31474;45.332;10.230;2022-11-12T10:05:33;22.48;;;15.25;;
45764;SDS011;31474;45.332;10.230;2022-11-12T10:11:01;20.92;;;15.15;;
45764;SDS011;31474;45.332;10.230;2022-11-12T10:22:17;25.10;;;18.65;;
45764;SDS011;31474;45.332;10.230;2022-11-12T10:25:17;30.58;;;19.25;;
45764;SDS011;31474;45.332;10.230;2022-11-12T10:27:44;30.52;;;20.42;;
45764;SDS011;31474;45.332;10.230;2022-11-12T10:30:14;36.10;;;22.40;;
45764;SDS011;31474;45.332;10.230;2022-11-12T10:32:42;34.97;;;21.92;;
45764;SDS011;31474;45.332;10.230;2022-11-12T10:35:10;41.40;;;25.15;;
45764;SDS011;31474;45.332;10.230;2022-11-12T10:37:53;38.40;;;24.67;;
45764;SDS011;31474;45.332;10.230;2022-11-12T10:40:27;36.03;;;23.98;;
45764;SDS011;31474;45.332;10.230;2022-11-12T10:42:57;33.50;;;22.35;;
45764;SDS011;31474;45.332;10.230;2022-11-12T10:45:28;33.83;;;22.73;;
45764;SDS011;31474;45.332;10.230;2022-11-12T10:47:55;30.27;;;20.98;;
45764;SDS011;31474;45.332;10.230;2022-11-12T10:53:05;34.55;;;22.55;;
45764;SDS011;31474;45.332;10.230;2022-11-12T10:55:38;36.88;;;22.45;;
45764;SDS011;31474;45.332;10.230;2022-11-12T10:58:23;37.03;;;21.95;;
45764;SDS011;31474;45.332;10.230;2022-11-12T11:03:23;31.75;;;19.50;;
45764;SDS011;31474;45.332;10.230;2022-11-12T11:13:47;36.53;;;23.25;;
45764;SDS011;31474;45.332;10.230;2022-11-12T11:16:15;46.42;;;26.88;;
45764;SDS011;31474;45.332;10.230;2022-11-12T11:18:58;28.30;;;19.63;;
45764;SDS011;31474;45.332;10.230;2022-11-12T11:21:50;28.63;;;18.63;;
45764;SDS011;31474;45.332;10.230;2022-11-12T11:32:39;40.40;;;22.33;;
45764;SDS011;31474;45.332;10.230;2022-11-12T11:35:14;22.42;;;16.30;;
45764;SDS011;31474;45.332;10.230;2022-11-12T11:40:55;25.33;;;15.80;;
45764;SDS011;31474;45.332;10.230;2022-11-12T11:46:42;17.55;;;14.70;;
45764;SDS011;31474;45.332;10.230;2022-11-12T12:09:46;18.85;;;13.55;;
45764;SDS011;31474;45.332;10.230;2022-11-12T12:15:36;16.98;;;13.40;;
45764;SDS011;31474;45.332;10.230;2022-11-12T12:18:03;13.82;;;11.95;;
45764;SDS011;31474;45.332;10.230;2022-11-12T12:21:00;29.08;;;18.17;;
45764;SDS011;31474;45.332;10.230;2022-11-12T12:23:30;18.25;;;14.15;;
45764;SDS011;31474;45.332;10.230;2022-11-12T12:29:06;25.98;;;15.50;;
45764;SDS011;31474;45.332;10.230;2022-11-12T12:31:43;25.50;;;15.95;;
45764;SDS011;31474;45.332;10.230;2022-11-12T12:35:00;18.15;;;12.93;;
45764;SDS011;31474;45.332;10.230;2022-11-12T12:37:36;19.15;;;13.60;;
45764;SDS011;31474;45.332;10.230;2022-11-12T12:42:47;20.60;;;14.02;;
45764;SDS011;31474;45.332;10.230;2022-11-12T12:45:35;20.80;;;13.43;;
45764;SDS011;31474;45.332;10.230;2022-11-12T12:48:06;19.58;;;14.02;;
45764;SDS011;31474;45.332;10.230;2022-11-12T12:50:41;19.05;;;12.05;;
45764;SDS011;31474;45.332;10.230;2022-11-12T12:53:29;15.02;;;12.35;;
45764;SDS011;31474;45.332;10.230;2022-11-12T12:55:57;19.38;;;13.38;;
45764;SDS011;31474;45.332;10.230;2022-11-12T12:58:29;18.70;;;12.90;;
45764;SDS011;31474;45.332;10.230;2022-11-12T13:03:53;17.58;;;13.48;;
45764;SDS011;31474;45.332;10.230;2022-11-12T13:06:30;27.98;;;15.23;;
45764;SDS011;31474;45.332;10.230;2022-11-12T13:09:21;21.95;;;15.50;;
45764;SDS011;31474;45.332;10.230;2022-11-12T13:11:51;18.88;;;13.25;;
45764;SDS011;31474;45.332;10.230;2022-11-12T13:16:59;13.55;;;12.15;;
45764;SDS011;31474;45.332;10.230;2022-11-12T13:19:26;46.22;;;25.40;;
45764;SDS011;31474;45.332;10.230;2022-11-12T13:24:59;25.50;;;16.70;;
45764;SDS011;31474;45.332;10.230;2022-11-12T13:53:57;15.75;;;11.85;;
45764;SDS011;31474;45.332;10.230;2022-11-12T13:56:30;14.63;;;12.60;;
45764;SDS011;31474;45.332;10.230;2022-11-12T13:59:07;15.90;;;12.15;;
45764;SDS011;31474;45.332;10.230;2022-11-12T14:01:44;12.55;;;11.23;;
45764;SDS011;31474;45.332;10.230;2022-11-12T14:04:21;14.23;;;11.57;;
45764;SDS011;31474;45.332;10.230;2022-11-12T14:06:52;12.50;;;11.25;;
45764;SDS011;31474;45.332;10.230;2022-11-12T14:14:51;23.15;;;15.00;;
45764;SDS011;31474;45.332;10.230;2022-11-12T14:17:45;19.13;;;15.05;;
45764;SDS011;31474;45.332;10.230;2022-11-12T14:20:23;13.75;;;11.75;;
45764;SDS011;31474;45.332;10.230;2022-11-12T14:23:02;13.13;;;11.73;;
45764;SDS011;31474;45.332;10.230;2022-11-12T14:25:45;11.98;;;10.70;;
45764;SDS011;31474;45.332;10.230;2022-11-12T14:28:31;17.15;;;13.32;;
45764;SDS011;31474;45.332;10.230;2022-11-12T14:30:59;15.75;;;12.02;;
45764;SDS011;31474;45.332;10.230;2022-11-12T14:33:27;14.40;;;10.75;;
45764;SDS011;31474;45.332;10.230;2022-11-12T14:36:02;12.02;;;10.70;;
45764;SDS011;31474;45.332;10.230;2022-11-12T14:38:32;12.88;;;11.38;;
45764;SDS011;31474;45.332;10.230;2022-11-12T14:41:02;12.35;;;11.05;;
45764;SDS011;31474;45.332;10.230;2022-11-12T14:46:07;14.45;;;10.57;;
45764;SDS011;31474;45.332;10.230;2022-11-12T14:48:45;14.52;;;11.20;;
45764;SDS011;31474;45.332;10.230;2022-11-12T14:51:14;12.80;;;11.38;;
45764;SDS011;31474;45.332;10.230;2022-11-12T14:53:55;21.30;;;13.55;;
45764;SDS011;31474;45.332;10.230;2022-11-12T14:56:28;14.90;;;11.87;;
45764;SDS011;31474;45.332;10.230;2022-11-12T14:59:01;14.88;;;10.77;;
45764;SDS011;31474;45.332;10.230;2022-11-12T15:01:29;12.52;;;10.98;;
45764;SDS011;31474;45.332;10.230;2022-11-12T15:04:18;12.93;;;11.23;;
45764;SDS011;31474;45.332;10.230;2022-11-12T15:06:55;12.55;;;10.73;;
45764;SDS011;31474;45.332;10.230;2022-11-12T15:09:35;13.20;;;10.88;;
45764;SDS011;31474;45.332;10.230;2022-11-12T15:12:09;15.68;;;12.15;;
45764;SDS011;31474;45.332;10.230;2022-11-12T15:14:43;13.05;;;10.52;;
45764;SDS011;31474;45.332;10.230;2022-11-12T15:17:54;17.00;;;10.82;;
45764;SDS011;31474;45.332;10.230;2022-11-12T15:20:02;13.25;;;11.07;;
45764;SDS011;31474;45.332;10.230;2022-11-12T15:22:30;13.77;;;10.88;;
45764;SDS011;31474;45.332;10.230;2022-11-12T15:25:43;11.27;;;10.15;;
45764;SDS011;31474;45.332;10.230;2022-11-12T15:27:44;13.80;;;11.38;;
45764;SDS011;31474;45.332;10.230;2022-11-12T15:30:14;12.25;;;10.75;;
45764;SDS011;31474;45.332;10.230;2022-11-12T15:32:49;12.55;;;11.25;;
45764;SDS011;31474;45.332;10.230;2022-11-12T15:35:32;14.45;;;11.02;;
45764;SDS011;31474;45.332;10.230;2022-11-12T15:38:00;14.40;;;10.80;;
45764;SDS011;31474;45.332;10.230;2022-11-12T15:40:29;13.65;;;11.63;;
45764;SDS011;31474;45.332;10.230;2022-11-12T15:42:57;14.65;;;11.52;;
45764;SDS011;31474;45.332;10.230;2022-11-12T15:45:23;13.75;;;11.43;;
45764;SDS011;31474;45.332;10.230;2022-11-12T15:47:49;13.65;;;11.73;;
45764;SDS011;31474;45.332;10.230;2022-11-12T15:52:41;15.45;;;13.38;;
45764;SDS011;31474;45.332;10.230;2022-11-12T15:55:07;14.70;;;11.75;;
45764;SDS011;31474;45.332;10.230;2022-11-12T15:57:37;14.02;;;12.02;;
45764;SDS011;31474;45.332;10.230;2022-11-12T16:00:16;17.23;;;13.02;;
45764;SDS011;31474;45.332;10.230;2022-11-12T16:02:56;16.02;;;12.02;;
45764;SDS011;31474;45.332;10.230;2022-11-12T16:05:24;14.65;;;12.27;;
45764;SDS011;31474;45.332;10.230;2022-11-12T16:07:50;18.10;;;13.20;;
45764;SDS011;31474;45.332;10.230;2022-11-12T16:10:16;16.27;;;13.13;;
45764;SDS011;31474;45.332;10.230;2022-11-12T16:12:43;16.83;;;14.50;;
45764;SDS011;31474;45.332;10.230;2022-11-12T16:15:20;17.60;;;14.35;;
45764;SDS011;31474;45.332;10.230;2022-11-12T16:17:49;21.83;;;17.48;;
45764;SDS011;31474;45.332;10.230;2022-11-12T16:20:17;26.35;;;18.45;;
45764;SDS011;31474;45.332;10.230;2022-11-12T16:22:46;24.80;;;18.38;;
45764;SDS011;31474;45.332;10.230;2022-11-12T16:25:12;25.67;;;19.83;;